createdAt,value
2018-04-11T00:00:40.003Z,100742.32
2018-04-11T00:03:05.843Z,100752.40
2018-04-11T00:05:31.507Z,100743.62
2018-04-11T00:07:57.200Z,100748.92
2018-04-11T00:10:22.867Z,100751.45
2018-04-11T00:12:48.571Z,100749.50
2018-04-11T00:15:14.302Z,100737.93
2018-04-11T00:17:39.975Z,100741.98
2018-04-11T00:20:05.651Z,100742.73
2018-04-11T00:22:31.358Z,100746.86
2018-04-11T00:24:57.043Z,100743.03
2018-04-11T00:27:22.719Z,100740.19
2018-04-11T00:29:48.395Z,100748.58
2018-04-11T00:32:14.048Z,100742.09
2018-04-11T00:34:39.720Z,100748.39
2018-04-11T00:37:05.378Z,100753.91
2018-04-11T00:39:31.071Z,100753.02
2018-04-11T00:41:56.779Z,100752.59
2018-04-11T00:44:22.477Z,100746.83
2018-04-11T00:46:48.200Z,100749.34
2018-04-11T00:49:13.911Z,100740.30
2018-04-11T00:51:39.571Z,100746.47
2018-04-11T00:54:05.262Z,100719.02
2018-04-11T00:56:30.938Z,100744.69
2018-04-11T00:58:56.655Z,100742.45
2018-04-11T01:01:22.998Z,100743.20
2018-04-11T01:03:48.678Z,100742.92
2018-04-11T01:06:14.341Z,100739.89
2018-04-11T01:08:40.080Z,100744.09
2018-04-11T01:11:05.750Z,100745.30
2018-04-11T01:13:31.411Z,100744.46
2018-04-11T01:15:57.066Z,100743.58
2018-04-11T01:18:22.753Z,100740.23
2018-04-11T01:20:48.436Z,100742.73
2018-04-11T01:23:14.107Z,100735.73
2018-04-11T01:25:39.832Z,100738.34
2018-04-11T01:28:05.495Z,100740.38
2018-04-11T01:30:31.202Z,100749.20
2018-04-11T01:32:56.883Z,100747.30
2018-04-11T01:35:22.555Z,100736.39
2018-04-11T01:37:48.431Z,100739.42
2018-04-11T01:40:14.356Z,100738.27
2018-04-11T01:42:40.027Z,100737.51
2018-04-11T01:45:05.747Z,100736.91
2018-04-11T01:47:32.041Z,100734.20
2018-04-11T01:49:57.870Z,100747.72
2018-04-11T01:52:23.522Z,100748.55
2018-04-11T01:54:49.208Z,100750.09
2018-04-11T01:57:14.917Z,100745.19
2018-04-11T01:59:40.637Z,100747.02
2018-04-11T02:02:06.322Z,100726.42
2018-04-11T02:04:32.058Z,100748.03
2018-04-11T02:06:57.714Z,100748.63
2018-04-11T02:09:23.374Z,100751.77
2018-04-11T02:11:49.073Z,100760.67
2018-04-11T02:14:14.759Z,100767.25
2018-04-11T02:16:40.538Z,100771.66
2018-04-11T02:19:06.199Z,100773.02
2018-04-11T02:21:31.934Z,100777.72
2018-04-11T02:23:57.592Z,100776.20
2018-04-11T02:26:23.282Z,100778.55
2018-04-11T02:28:49.053Z,100781.27
2018-04-11T02:31:14.738Z,100788.45
2018-04-11T02:33:40.473Z,100784.95
2018-04-11T02:36:06.161Z,100784.71
2018-04-11T02:38:32.003Z,100788.80
2018-04-11T02:40:57.675Z,100773.89
2018-04-11T02:43:23.412Z,100779.05
2018-04-11T02:45:49.314Z,100787.20
2018-04-11T02:48:14.991Z,100788.01
2018-04-11T02:50:40.667Z,100790.39
2018-04-11T02:53:06.319Z,100796.27
2018-04-11T02:55:31.974Z,100796.45
2018-04-11T02:57:57.643Z,100794.44
2018-04-11T03:00:23.317Z,100797.69
2018-04-11T03:02:49.067Z,100787.20
2018-04-11T03:05:14.752Z,100789.56
2018-04-11T03:07:40.448Z,100784.35
2018-04-11T03:10:06.114Z,100789.63
2018-04-11T03:12:31.783Z,100775.68
2018-04-11T03:14:57.460Z,100767.09
2018-04-11T03:17:23.151Z,100775.14
2018-04-11T03:19:48.871Z,100779.20
2018-04-11T03:22:14.592Z,100739.94
2018-04-11T03:24:40.283Z,100796.63
2018-04-11T03:27:05.983Z,100796.65
2018-04-11T03:29:31.803Z,100798.00
2018-04-11T03:31:57.479Z,100803.28
2018-04-11T03:34:23.168Z,100792.41
2018-04-11T03:36:48.850Z,100778.83
2018-04-11T03:39:14.515Z,100783.75
2018-04-11T03:41:40.194Z,100783.41
2018-04-11T03:44:05.879Z,100800.23
2018-04-11T03:46:31.550Z,100797.29
2018-04-11T03:48:57.244Z,100794.62
2018-04-11T03:51:22.906Z,100785.67
2018-04-11T03:53:48.699Z,100788.16
2018-04-11T03:56:14.358Z,100779.00
2018-04-11T03:58:40.059Z,100777.28
2018-04-11T04:01:05.719Z,100770.27
2018-04-11T04:03:31.699Z,100777.09
2018-04-11T04:05:57.384Z,100783.59
2018-04-11T04:08:23.099Z,100791.47
2018-04-11T04:10:48.771Z,100791.70
2018-04-11T04:13:14.460Z,100794.71
2018-04-11T04:15:46.296Z,100782.90
2018-04-11T04:18:18.182Z,100780.84
2018-04-11T04:20:43.869Z,100772.64
2018-04-11T04:23:09.574Z,100784.34
2018-04-11T04:25:35.252Z,100791.12
2018-04-11T04:28:00.936Z,100795.80
2018-04-11T04:30:26.610Z,100794.44
2018-04-11T04:32:52.337Z,100784.09
2018-04-11T04:35:17.991Z,100797.70
2018-04-11T04:37:43.667Z,100803.75
2018-04-11T04:40:09.746Z,100801.56
2018-04-11T04:42:35.425Z,100807.31
2018-04-11T04:45:01.123Z,100810.07
2018-04-11T04:47:26.782Z,100815.39
2018-04-11T04:49:52.485Z,100809.57
2018-04-11T04:52:18.155Z,100813.97
2018-04-11T04:54:43.845Z,100808.70
2018-04-11T04:57:09.521Z,100808.70
2018-04-11T04:59:35.198Z,100809.41
2018-04-11T05:02:00.858Z,100811.02
2018-04-11T05:04:26.535Z,100814.26
2018-04-11T05:06:52.195Z,100818.55
2018-04-11T05:09:17.886Z,100825.12
2018-04-11T05:11:43.574Z,100822.18
2018-04-11T05:14:09.572Z,100823.72
2018-04-11T05:16:35.223Z,100816.30
2018-04-11T05:19:00.917Z,100822.30
2018-04-11T05:21:26.911Z,100822.22
2018-04-11T05:23:52.608Z,100828.10
2018-04-11T05:26:18.324Z,100835.90
2018-04-11T05:28:44.016Z,100842.18
2018-04-11T05:31:09.905Z,100849.84
2018-04-11T05:33:35.579Z,100848.30
2018-04-11T05:36:01.266Z,100847.09
2018-04-11T05:38:26.923Z,100845.45
2018-04-11T05:40:52.614Z,100840.57
2018-04-11T05:43:18.271Z,100853.74
2018-04-11T05:45:44.000Z,100857.47
2018-04-11T05:48:09.654Z,100854.80
2018-04-11T05:50:35.431Z,100866.51
2018-04-11T05:53:01.089Z,100852.53
2018-04-11T05:55:26.763Z,100862.61
2018-04-11T05:57:52.415Z,100873.48
2018-04-11T06:00:18.117Z,100874.73
2018-04-11T06:02:43.784Z,100877.98
2018-04-11T06:05:09.459Z,100877.22
2018-04-11T06:07:35.123Z,100879.94
2018-04-11T06:10:00.803Z,100888.67
2018-04-11T06:12:26.463Z,100883.63
2018-04-11T06:14:55.088Z,100886.25
2018-04-11T06:17:20.758Z,100887.02
2018-04-11T06:19:46.431Z,100889.80
2018-04-11T06:22:12.135Z,100891.77
2018-04-11T06:24:37.795Z,100894.03
2018-04-11T06:27:03.516Z,100890.50
2018-04-11T06:29:29.221Z,100901.91
2018-04-11T06:31:54.910Z,100897.47
2018-04-11T06:34:20.593Z,100898.25
2018-04-11T06:36:46.298Z,100891.89
2018-04-11T06:39:11.963Z,100896.45
2018-04-11T06:41:37.655Z,100894.68
2018-04-11T06:44:03.317Z,100887.73
2018-04-11T06:46:29.071Z,100894.61
2018-04-11T06:48:54.759Z,100911.90
2018-04-11T06:51:20.446Z,100911.43
2018-04-11T06:53:46.102Z,100905.96
2018-04-11T06:56:11.771Z,100905.97
2018-04-11T06:58:37.422Z,100900.52
2018-04-11T07:01:03.127Z,100908.52
2018-04-11T07:03:28.819Z,100917.02
2018-04-11T07:05:54.474Z,100919.03
2018-04-11T07:08:20.175Z,100917.12
2018-04-11T07:10:46.117Z,100917.96
2018-04-11T07:13:11.842Z,100898.89
2018-04-11T07:15:37.494Z,100919.50
2018-04-11T07:18:03.175Z,100924.61
2018-04-11T07:20:28.846Z,100920.55
2018-04-11T07:22:54.512Z,100933.34
2018-04-11T07:25:20.181Z,100926.94
2018-04-11T07:27:47.347Z,100921.23
2018-04-11T07:30:13.012Z,100921.47
2018-04-11T07:32:38.708Z,100922.59
2018-04-11T07:35:04.369Z,100934.82
2018-04-11T07:37:30.072Z,100935.47
2018-04-11T07:39:55.727Z,100933.00
2018-04-11T07:42:21.412Z,100938.19
2018-04-11T07:44:47.058Z,100942.80
2018-04-11T07:47:12.813Z,100932.20
2018-04-11T07:49:38.486Z,100930.59
2018-04-11T07:52:04.187Z,100934.38
2018-04-11T07:54:29.888Z,100933.16
2018-04-11T07:56:55.538Z,100933.52
2018-04-11T07:59:21.251Z,100931.17
2018-04-11T08:01:46.919Z,100937.75
2018-04-11T08:04:12.611Z,100937.12
2018-04-11T08:06:38.274Z,100939.09
2018-04-11T08:09:04.048Z,100944.31
2018-04-11T08:11:29.734Z,100944.62
2018-04-11T08:13:55.435Z,100948.60
2018-04-11T08:16:21.097Z,100960.88
2018-04-11T08:18:46.781Z,100965.84
2018-04-11T08:21:12.498Z,100963.73
2018-04-11T08:23:38.116Z,100970.09
2018-04-11T08:26:04.147Z,100958.48
2018-04-11T08:28:29.821Z,100960.81
2018-04-11T08:30:55.566Z,100951.78
2018-04-11T08:33:21.256Z,100941.95
2018-04-11T08:35:46.915Z,100957.95
2018-04-11T08:38:12.612Z,100960.55
2018-04-11T08:40:38.331Z,100961.75
2018-04-11T08:43:04.002Z,100968.00
2018-04-11T08:45:29.695Z,100955.29
2018-04-11T08:47:55.379Z,100965.52
2018-04-11T08:50:21.066Z,100954.98
2018-04-11T08:52:46.723Z,100958.06
2018-04-11T08:55:12.425Z,100958.46
2018-04-11T08:57:38.148Z,100960.20
2018-04-11T09:00:03.847Z,100945.85
2018-04-11T09:02:29.508Z,100945.46
2018-04-11T09:04:55.176Z,100945.61
2018-04-11T09:07:20.854Z,100950.83
2018-04-11T09:09:46.569Z,100946.93
2018-04-11T09:12:12.253Z,100951.32
2018-04-11T09:14:37.971Z,100946.19
2018-04-11T09:17:03.682Z,100948.24
2018-04-11T09:19:29.400Z,100949.37
2018-04-11T09:21:55.113Z,100944.14
2018-04-11T09:24:20.808Z,100950.12
2018-04-11T09:26:46.498Z,100950.27
2018-04-11T09:29:12.166Z,100944.43
2018-04-11T09:31:37.891Z,100941.48
2018-04-11T09:34:03.599Z,100935.41
2018-04-11T09:36:29.379Z,100943.08
2018-04-11T09:38:55.060Z,100941.67
2018-04-11T09:41:20.756Z,100937.09
2018-04-11T09:43:46.443Z,100928.47
2018-04-11T09:46:12.176Z,100929.84
2018-04-11T09:48:37.927Z,100945.55
2018-04-11T09:51:03.630Z,100936.02
2018-04-11T09:53:29.332Z,100936.02
2018-04-11T09:55:55.045Z,100921.34
2018-04-11T09:58:20.694Z,100917.36
2018-04-11T10:00:52.395Z,100903.92
2018-04-11T10:03:18.111Z,100922.27
2018-04-11T10:05:43.770Z,100919.07
2018-04-11T10:08:10.307Z,100926.73
2018-04-11T10:10:35.978Z,100929.30
2018-04-11T10:13:01.651Z,100924.97
2018-04-11T10:15:27.329Z,100917.88
2018-04-11T10:17:53.019Z,100918.19
2018-04-11T10:20:18.686Z,100914.53
2018-04-11T10:22:44.400Z,100920.86
2018-04-11T10:25:10.079Z,100914.83
2018-04-11T10:27:35.761Z,100910.70
2018-04-11T10:30:01.573Z,100909.06
2018-04-11T10:32:27.261Z,100909.73
2018-04-11T10:34:52.944Z,100909.88
2018-04-11T10:37:18.642Z,100912.14
2018-04-11T10:39:44.452Z,100904.20
2018-04-11T10:42:10.055Z,100900.38
2018-04-11T10:44:35.740Z,100898.12
2018-04-11T10:47:01.414Z,100895.91
2018-04-11T10:49:27.379Z,100895.55
2018-04-11T10:51:53.070Z,100892.11
2018-04-11T10:54:18.723Z,100897.90
2018-04-11T10:56:44.416Z,100893.48
2018-04-11T10:59:10.074Z,100893.82
2018-04-11T11:01:35.778Z,100880.87
2018-04-11T11:04:01.531Z,100882.72
2018-04-11T11:06:27.192Z,100882.52
2018-04-11T11:08:52.843Z,100882.67
2018-04-11T11:11:18.500Z,100879.34
2018-04-11T11:13:44.171Z,100880.98
2018-04-11T11:16:09.832Z,100869.45
2018-04-11T11:18:35.855Z,100875.68
2018-04-11T11:21:01.519Z,100875.80
2018-04-11T11:23:27.220Z,100883.02
2018-04-11T11:25:53.799Z,100866.84
2018-04-11T11:28:19.501Z,100866.86
2018-04-11T11:30:45.204Z,100864.21
2018-04-11T11:33:10.883Z,100875.55
2018-04-11T11:35:36.574Z,100877.27
2018-04-11T11:38:02.260Z,100874.61
2018-04-11T11:40:27.932Z,100876.14
2018-04-11T11:42:53.626Z,100876.87
2018-04-11T11:45:19.351Z,100869.56
2018-04-11T11:47:45.081Z,100870.16
2018-04-11T11:50:10.755Z,100867.35
2018-04-11T11:52:36.432Z,100864.88
2018-04-11T11:55:02.135Z,100885.11
2018-04-11T11:57:27.846Z,100862.28
2018-04-11T11:59:53.535Z,100862.62
2018-04-11T12:02:19.233Z,100867.46
2018-04-11T12:04:44.875Z,100866.81
2018-04-11T12:07:10.540Z,100864.23
2018-04-11T12:09:36.234Z,100865.05
2018-04-11T12:12:01.891Z,100864.91
2018-04-11T12:14:27.568Z,100867.29
2018-04-11T12:16:53.239Z,100867.46
2018-04-11T12:19:18.914Z,100873.62
2018-04-11T12:21:44.623Z,100875.71
2018-04-11T12:24:10.336Z,100866.51
2018-04-11T12:26:36.006Z,100870.73
2018-04-11T12:29:01.687Z,100868.81
2018-04-11T12:31:27.343Z,100870.80
2018-04-11T12:33:53.025Z,100870.81
2018-04-11T12:36:19.034Z,100874.66
2018-04-11T12:38:44.725Z,100873.38
2018-04-11T12:41:10.479Z,100871.80
2018-04-11T12:43:36.143Z,100874.63
2018-04-11T12:46:01.830Z,100874.83
2018-04-11T12:48:27.527Z,100870.70
2018-04-11T12:50:53.209Z,100876.56
2018-04-11T12:53:18.903Z,100869.39
2018-04-11T12:55:44.651Z,100876.00
2018-04-11T12:58:10.295Z,100871.81
2018-04-11T13:00:36.263Z,100868.27
2018-04-11T13:03:01.931Z,100877.83
2018-04-11T13:05:27.639Z,100872.63
2018-04-11T13:07:53.311Z,100875.35
2018-04-11T13:10:19.003Z,100873.91
2018-04-11T13:12:44.682Z,100881.19
2018-04-11T13:15:10.719Z,100880.48
2018-04-11T13:17:36.326Z,100873.81
2018-04-11T13:20:01.999Z,100877.23
2018-04-11T13:22:27.658Z,100878.52
2018-04-11T13:24:53.359Z,100874.62
2018-04-11T13:27:19.068Z,100877.73
2018-04-11T13:29:44.731Z,100884.22
2018-04-11T13:32:10.431Z,100886.09
2018-04-11T13:34:36.099Z,100880.77
2018-04-11T13:37:01.794Z,100883.19
2018-04-11T13:39:27.485Z,100884.93
2018-04-11T13:41:53.171Z,100874.27
2018-04-11T13:44:18.876Z,100853.00
2018-04-11T13:46:44.567Z,100874.60
2018-04-11T13:49:10.258Z,100871.17
2018-04-11T13:51:35.970Z,100864.13
2018-04-11T13:54:01.671Z,100860.45
2018-04-11T13:56:27.605Z,100856.94
2018-04-11T13:58:53.283Z,100863.30
2018-04-11T14:01:19.007Z,100864.04
2018-04-11T14:03:44.698Z,100867.86
2018-04-11T14:06:10.387Z,100872.60
2018-04-11T14:08:36.066Z,100874.06
2018-04-11T14:11:01.743Z,100872.06
2018-04-11T14:13:27.499Z,100871.28
2018-04-11T14:15:53.199Z,100861.73
2018-04-11T14:18:18.892Z,100858.31
2018-04-11T14:20:44.567Z,100857.37
2018-04-11T14:23:10.268Z,100857.37
2018-04-11T14:25:35.970Z,100862.52
2018-04-11T14:28:01.849Z,100860.10
2018-04-11T14:30:27.579Z,100856.00
2018-04-11T14:32:53.259Z,100859.88
2018-04-11T14:35:18.972Z,100851.70
2018-04-11T14:37:44.719Z,100852.33
2018-04-11T14:40:10.409Z,100846.66
2018-04-11T14:42:36.194Z,100824.83
2018-04-11T14:45:01.933Z,100836.10
2018-04-11T14:47:27.630Z,100833.96
2018-04-11T14:49:53.700Z,100843.66
2018-04-11T14:52:19.381Z,100834.47
2018-04-11T14:54:45.347Z,100828.39
2018-04-11T14:57:11.010Z,100835.48
2018-04-11T14:59:36.772Z,100828.76
2018-04-11T15:02:02.471Z,100821.94
2018-04-11T15:04:28.411Z,100822.78
2018-04-11T15:06:54.154Z,100836.16
2018-04-11T15:09:19.806Z,100831.67
2018-04-11T15:11:45.505Z,100829.12
2018-04-11T15:14:11.210Z,100834.64
2018-04-11T15:16:36.890Z,100835.33
2018-04-11T15:19:02.584Z,100833.95
2018-04-11T15:21:28.251Z,100841.30
2018-04-11T15:23:53.967Z,100843.78
2018-04-11T15:26:19.649Z,100845.23
2018-04-11T15:28:45.309Z,100842.73
2018-04-11T15:31:11.045Z,100834.16
2018-04-11T15:33:36.708Z,100838.45
2018-04-11T15:36:02.713Z,100841.81
2018-04-11T15:38:28.381Z,100841.32
2018-04-11T15:40:54.112Z,100843.44
2018-04-11T15:43:19.844Z,100844.45
2018-04-11T15:45:45.572Z,100849.39
2018-04-11T15:48:11.254Z,100850.53
2018-04-11T15:50:36.951Z,100846.33
2018-04-11T15:53:02.615Z,100849.64
2018-04-11T15:55:28.308Z,100845.98
2018-04-11T15:57:54.027Z,100852.97
2018-04-11T16:00:19.739Z,100854.07
2018-04-11T16:02:45.399Z,100862.66
2018-04-11T16:05:11.103Z,100851.28
2018-04-11T16:07:36.770Z,100851.22
2018-04-11T16:10:02.523Z,100858.67
2018-04-11T16:12:28.245Z,100848.67
2018-04-11T16:14:53.923Z,100847.72
2018-04-11T16:17:19.622Z,100855.97
2018-04-11T16:19:45.283Z,100850.98
2018-04-11T16:22:10.971Z,100844.53
2018-04-11T16:24:36.636Z,100863.01
2018-04-11T16:27:02.317Z,100860.80
2018-04-11T16:29:27.991Z,100852.91
2018-04-11T16:31:53.739Z,100854.78
2018-04-11T16:34:19.435Z,100844.61
2018-04-11T16:36:45.110Z,100853.12
2018-04-11T16:39:10.774Z,100842.17
2018-04-11T16:41:36.452Z,100845.44
2018-04-11T16:44:02.128Z,100837.98
2018-04-11T16:46:27.851Z,100836.81
2018-04-11T16:48:53.661Z,100839.38
2018-04-11T16:51:19.396Z,100849.91
2018-04-11T16:53:45.102Z,100848.73
2018-04-11T16:56:10.771Z,100858.19
2018-04-11T16:58:36.699Z,100868.61
2018-04-11T17:01:02.696Z,100862.68
2018-04-11T17:03:28.377Z,100862.62
2018-04-11T17:05:54.071Z,100851.08
2018-04-11T17:08:19.774Z,100850.52
2018-04-11T17:10:45.447Z,100852.92
2018-04-11T17:13:11.146Z,100852.03
2018-04-11T17:15:36.816Z,100858.28
2018-04-11T17:18:02.536Z,100855.77
2018-04-11T17:20:34.239Z,100848.55
2018-04-11T17:23:06.030Z,100853.98
2018-04-11T17:28:39.425Z,100854.83
2018-04-11T17:31:14.144Z,100856.49
2018-04-11T17:33:39.849Z,100849.25
2018-04-11T17:36:05.531Z,100846.67
2018-04-11T17:38:31.203Z,100854.41
2018-04-11T17:40:56.904Z,100829.21
2018-04-11T17:43:22.620Z,100852.30
2018-04-11T17:45:48.331Z,100853.46
2018-04-11T17:48:14.016Z,100851.76
2018-04-11T17:50:39.718Z,100857.58
2018-04-11T17:53:05.383Z,100864.83
2018-04-11T17:55:31.323Z,100859.45
2018-04-11T17:57:57.002Z,100869.59
2018-04-11T18:00:22.661Z,100871.06
2018-04-11T18:02:48.366Z,100867.95
2018-04-11T18:05:14.012Z,100869.35
2018-04-11T18:07:39.719Z,100871.14
2018-04-11T18:10:05.505Z,100873.28
2018-04-11T18:12:31.183Z,100871.20
2018-04-11T18:14:56.867Z,100875.91
2018-04-11T18:20:08.095Z,100870.39
2018-04-11T18:22:33.760Z,100861.42
2018-04-11T18:24:59.447Z,100869.09
2018-04-11T18:27:25.107Z,100870.80
2018-04-11T18:29:54.871Z,100876.22
2018-04-11T18:32:20.563Z,100873.45
2018-04-11T18:34:46.227Z,100872.80
2018-04-11T18:37:12.108Z,100878.97
2018-04-11T18:39:37.830Z,100874.63
2018-04-11T18:42:05.347Z,100871.34
2018-04-11T18:44:31.052Z,100875.56
2018-04-11T18:46:56.731Z,100875.09
2018-04-11T18:49:22.411Z,100877.66
2018-04-11T18:51:48.096Z,100867.48
2018-04-11T18:54:13.755Z,100879.52
2018-04-11T18:56:39.475Z,100874.29
2018-04-11T18:59:05.140Z,100875.80
2018-04-11T19:01:31.050Z,100884.72
2018-04-11T19:03:56.728Z,100878.68
2018-04-11T19:06:22.415Z,100882.94
2018-04-11T19:08:48.619Z,100885.69
2018-04-11T19:11:14.308Z,100873.55
2018-04-11T19:13:39.975Z,100872.14
2018-04-11T19:16:05.658Z,100891.94
2018-04-11T19:18:31.325Z,100887.66
2018-04-11T19:20:57.027Z,100888.30
2018-04-11T19:23:22.687Z,100885.45
2018-04-11T19:25:48.356Z,100892.28
2018-04-11T19:28:14.044Z,100885.55
2018-04-11T19:30:39.803Z,100893.06
2018-04-11T19:33:05.467Z,100885.39
2018-04-11T19:35:31.160Z,100886.38
2018-04-11T19:37:56.869Z,100886.05
2018-04-11T19:40:22.527Z,100897.58
2018-04-11T19:42:48.189Z,100888.66
2018-04-11T19:45:13.886Z,100887.64
2018-04-11T19:47:39.551Z,100888.01
2018-04-11T19:50:05.340Z,100888.62
2018-04-11T19:52:30.986Z,100888.98
2018-04-11T19:54:56.700Z,100893.14
2018-04-11T19:57:22.376Z,100889.35
2018-04-11T19:59:48.075Z,100890.81
2018-04-11T20:02:13.735Z,100891.47
2018-04-11T20:04:39.415Z,100900.94
2018-04-11T20:07:05.121Z,100897.72
2018-04-11T20:09:30.803Z,100895.80
2018-04-11T20:11:56.547Z,100893.55
2018-04-11T20:14:22.235Z,100896.52
2018-04-11T20:16:47.922Z,100911.83
2018-04-11T20:19:13.592Z,100906.98
2018-04-11T20:21:39.263Z,100908.10
2018-04-11T20:24:04.936Z,100898.89
2018-04-11T20:26:30.663Z,100904.56
2018-04-11T20:28:56.780Z,100896.34
2018-04-11T20:31:22.881Z,100893.03
2018-04-11T20:33:50.154Z,100894.36
2018-04-11T20:36:15.862Z,100883.75
2018-04-11T20:38:41.572Z,100883.72
2018-04-11T20:41:07.282Z,100888.84
2018-04-11T20:43:33.018Z,100886.33
2018-04-11T20:45:58.721Z,100883.25
2018-04-11T20:48:24.421Z,100886.20
2018-04-11T20:50:50.080Z,100885.98
2018-04-11T20:53:15.765Z,100883.68
2018-04-11T20:55:41.439Z,100880.92
2018-04-11T20:58:07.126Z,100871.12
2018-04-11T21:00:32.799Z,100876.95
2018-04-11T21:02:58.457Z,100876.48
2018-04-11T21:05:24.156Z,100875.60
2018-04-11T21:07:49.835Z,100877.33
2018-04-11T21:10:15.503Z,100876.39
2018-04-11T21:12:41.175Z,100867.05
2018-04-11T21:15:06.868Z,100868.77
2018-04-11T21:17:32.549Z,100859.47
2018-04-11T21:19:58.231Z,100865.11
2018-04-11T21:22:23.901Z,100863.39
2018-04-11T21:24:49.642Z,100863.39
2018-04-11T21:27:15.329Z,100863.02
2018-04-11T21:29:41.027Z,100867.41
2018-04-11T21:32:06.735Z,100861.84
2018-04-11T21:34:32.395Z,100858.81
2018-04-11T21:36:58.068Z,100853.00
2018-04-11T21:39:23.774Z,100855.66
2018-04-11T21:41:49.510Z,100858.73
2018-04-11T21:44:15.177Z,100859.40
2018-04-11T21:46:40.882Z,100859.36
2018-04-11T21:49:06.557Z,100849.97
2018-04-11T21:51:32.224Z,100844.96
2018-04-11T21:53:57.894Z,100850.09
2018-04-11T21:56:23.567Z,100854.58
2018-04-11T21:58:49.245Z,100853.57
2018-04-11T22:01:14.907Z,100849.52
2018-04-11T22:03:40.564Z,100824.13
2018-04-11T22:06:06.246Z,100844.33
2018-04-11T22:08:31.943Z,100846.34
2018-04-11T22:10:57.638Z,100840.34
2018-04-11T22:13:23.302Z,100846.70
2018-04-11T22:15:48.979Z,100832.58
2018-04-11T22:18:14.658Z,100831.52
2018-04-11T22:20:40.342Z,100822.06
2018-04-11T22:23:06.047Z,100816.01
2018-04-11T22:25:31.705Z,100817.56
2018-04-11T22:27:57.384Z,100816.77
2018-04-11T22:30:23.040Z,100809.83
2018-04-11T22:32:48.743Z,100817.02
2018-04-11T22:35:14.423Z,100820.39
2018-04-11T22:37:40.082Z,100815.47
2018-04-11T22:40:05.779Z,100808.33
2018-04-11T22:42:31.466Z,100808.59
2018-04-11T22:44:57.139Z,100798.16
2018-04-11T22:47:22.838Z,100808.30
2018-04-11T22:49:48.535Z,100801.71
2018-04-11T22:52:14.219Z,100802.30
2018-04-11T22:54:39.928Z,100796.32
2018-04-11T22:57:05.599Z,100790.20
2018-04-11T22:59:31.331Z,100783.96
2018-04-11T23:01:57.359Z,100794.56
2018-04-11T23:04:23.044Z,100778.98
2018-04-11T23:06:48.771Z,100788.66
2018-04-11T23:09:14.433Z,100799.09
2018-04-11T23:11:40.123Z,100798.47
2018-04-11T23:14:05.804Z,100804.98
2018-04-11T23:16:31.502Z,100800.86
2018-04-11T23:18:57.183Z,100786.73
2018-04-11T23:21:22.861Z,100793.76
2018-04-11T23:23:48.565Z,100791.11
2018-04-11T23:26:14.231Z,100783.97
2018-04-11T23:28:39.908Z,100781.99
2018-04-11T23:31:05.617Z,100782.20
2018-04-11T23:36:28.141Z,100783.00
2018-04-11T23:38:53.826Z,100774.69
2018-04-11T23:41:19.535Z,100771.44
2018-04-11T23:43:45.210Z,100774.42
2018-04-11T23:46:11.131Z,100771.94
2018-04-11T23:48:36.811Z,100777.91
2018-04-11T23:51:02.495Z,100767.02
2018-04-11T23:53:28.158Z,100773.25
2018-04-11T23:55:53.839Z,100768.12
2018-04-11T23:58:19.514Z,100767.02
